KBTM

Bert Mooney Airport

Butte, Montana, USA
KBTM 210520Z 2106/2206 29007KT P6SM SKC FM211900 28010G18KT P6SM SKC FM212100 30012G22KT P6SM SKC FM220300 32010KT P6SM SKC
Issued Valid From Valid To
Jul-21 @ 05:20 UTC
(5 hours ago)
Jul-21 @ 06:00 UTC
(4 hours ago)
Jul-22 @ 06:00 UTC
(in 20 hours)
Jul-21 @ 06:00 to Jul-21 @ 19:00
KBTM 210520Z 2106/2206 29007KT P6SM SKC
Wind Visibility Clouds
290° at 7 knots Greater than 6 miles
  • Clear skies
From Jul-21 @ 19:00 to Jul-21 @ 21:00
FM211900 28010G18KT P6SM SKC
Wind Visibility Clouds
280° at 10 knots
 Gusting to 18 knots
Greater than 6 miles
  • Clear skies
From Jul-21 @ 21:00 to Jul-22 @ 03:00
FM212100 30012G22KT P6SM SKC
Wind Visibility Clouds
300° at 12 knots
 Gusting to 22 knots
Greater than 6 miles
  • Clear skies
From Jul-22 @ 03:00 to Jul-22 @ 06:00
FM220300 32010KT P6SM SKC
Wind Visibility Clouds
320° at 10 knots Greater than 6 miles
  • Clear skies
KBTM 210520Z 2106/2206 29007KT P6SM SKC FM211900 28010G18KT P6SM SKC FM212100 30012G22KT P6SM SKC FM220300 32010KT P6SM SKC
Issued Jul-21 @ 05:20 UTC
(5 hours ago)
Valid From Jul-21 @ 06:00 UTC
(4 hours ago)
Valid To Jul-22 @ 06:00 UTC
(in 20 hours)
Jul-21 @ 06:00 - Jul-21 @ 19:00
Wind Visibility
290° at 7 knots Greater than 6 miles
Clouds
  • Clear skies
From Jul-21 @ 19:00 - Jul-21 @ 21:00
Wind Visibility
280° at 10 knots
 Gusting to 18 knots
Greater than 6 miles
Clouds
  • Clear skies
From Jul-21 @ 21:00 - Jul-22 @ 03:00
Wind Visibility
300° at 12 knots
 Gusting to 22 knots
Greater than 6 miles
Clouds
  • Clear skies
From Jul-22 @ 03:00 - Jul-22 @ 06:00
Wind Visibility
320° at 10 knots Greater than 6 miles
Clouds
  • Clear skies